createdAt,value
2019-01-20T00:01:35.576Z,99893.67
2019-01-20T00:04:05.047Z,99893.32
2019-01-20T00:06:35.045Z,99896.06
2019-01-20T00:09:07.283Z,99899.25
2019-01-20T00:11:36.869Z,99895.56
2019-01-20T00:14:06.473Z,99897.09
2019-01-20T00:16:35.855Z,99897.72
2019-01-20T00:19:05.040Z,99892.94
2019-01-20T00:21:34.459Z,99899.94
2019-01-20T00:24:03.661Z,99898.87
2019-01-20T00:26:32.797Z,99897.09
2019-01-20T00:29:02.003Z,99893.78
2019-01-20T00:31:31.200Z,99894.02
2019-01-20T00:34:00.255Z,99888.28
2019-01-20T00:36:29.391Z,99889.70
2019-01-20T00:38:58.483Z,99890.43
2019-01-20T00:41:27.693Z,99885.88
2019-01-20T00:43:56.949Z,99898.12
2019-01-20T00:46:26.169Z,99894.08
2019-01-20T00:48:55.355Z,99892.55
2019-01-20T00:51:24.688Z,99892.27
2019-01-20T00:53:53.908Z,99898.02
2019-01-20T00:56:23.141Z,99895.78
2019-01-20T00:58:52.511Z,99896.58
2019-01-20T01:01:21.628Z,99897.27
2019-01-20T01:03:50.758Z,99892.47
2019-01-20T01:06:21.258Z,99891.59
2019-01-20T01:08:50.381Z,99897.70
2019-01-20T01:11:19.453Z,99894.97
2019-01-20T01:13:48.574Z,99894.70
2019-01-20T01:16:17.654Z,99895.66
2019-01-20T01:18:47.045Z,99895.88
2019-01-20T01:21:16.444Z,99899.06
2019-01-20T01:23:45.566Z,99894.92
2019-01-20T01:26:14.676Z,99902.55
2019-01-20T01:28:44.005Z,99904.70
2019-01-20T01:31:13.142Z,99902.95
2019-01-20T01:33:42.370Z,99908.64
2019-01-20T01:36:11.531Z,99899.75
2019-01-20T01:38:40.831Z,99902.50
2019-01-20T01:41:10.197Z,99902.26
2019-01-20T01:43:39.566Z,99899.31
2019-01-20T01:46:08.701Z,99906.43
2019-01-20T01:48:38.025Z,99903.93
2019-01-20T01:51:07.127Z,99906.89
2019-01-20T01:53:36.222Z,99898.67
2019-01-20T01:56:05.844Z,99902.31
2019-01-20T01:58:34.979Z,99898.79
2019-01-20T02:01:04.739Z,99902.16
2019-01-20T02:03:33.958Z,99901.44
2019-01-20T02:06:03.196Z,99904.77
2019-01-20T02:08:32.390Z,99899.47
2019-01-20T02:11:01.786Z,99905.23
2019-01-20T02:13:30.876Z,99900.09
2019-01-20T02:16:00.024Z,99898.11
2019-01-20T02:18:29.275Z,99890.62
2019-01-20T02:20:58.421Z,99894.82
2019-01-20T02:23:27.800Z,99899.83
2019-01-20T02:25:57.125Z,99899.38
2019-01-20T02:28:26.253Z,99904.03
2019-01-20T02:30:55.376Z,99894.98
2019-01-20T02:33:24.687Z,99898.18
2019-01-20T02:35:53.824Z,99894.98
2019-01-20T02:38:23.419Z,99904.53
2019-01-20T02:40:52.641Z,99896.52
2019-01-20T02:43:21.739Z,99901.18
2019-01-20T02:45:51.086Z,99895.33
2019-01-20T02:48:20.202Z,99895.70
2019-01-20T02:50:49.429Z,99889.53
2019-01-20T02:53:18.522Z,99895.12
2019-01-20T02:55:47.826Z,99886.91
2019-01-20T02:58:17.179Z,99887.73
2019-01-20T03:00:46.397Z,99890.12
2019-01-20T03:03:15.516Z,99892.01
2019-01-20T03:05:44.633Z,99894.74
2019-01-20T03:08:13.860Z,99887.00
2019-01-20T03:10:42.954Z,99895.35
2019-01-20T03:13:12.107Z,99893.34
2019-01-20T03:15:41.361Z,99894.28
2019-01-20T03:18:10.621Z,99893.34
2019-01-20T03:20:39.838Z,99893.34
2019-01-20T03:23:09.134Z,99893.83
2019-01-20T03:25:38.334Z,99897.73
2019-01-20T03:28:07.462Z,99892.26
2019-01-20T03:30:36.592Z,99887.85
2019-01-20T03:33:06.086Z,99886.20
2019-01-20T03:35:35.446Z,99883.56
2019-01-20T03:38:04.583Z,99888.94
2019-01-20T03:40:33.661Z,99888.20
2019-01-20T03:43:02.790Z,99895.02
2019-01-20T03:45:32.069Z,99894.06
2019-01-20T03:48:01.286Z,99898.69
2019-01-20T03:50:30.598Z,99894.87
2019-01-20T03:52:59.800Z,99892.88
2019-01-20T03:55:29.018Z,99897.62
2019-01-20T03:57:58.317Z,99893.69
2019-01-20T04:00:27.516Z,99898.11
2019-01-20T04:03:00.133Z,99890.36
2019-01-20T04:05:29.212Z,99891.55
2019-01-20T04:07:58.496Z,99894.05
2019-01-20T04:10:27.696Z,99895.72
2019-01-20T04:12:57.012Z,99893.94
2019-01-20T04:15:27.083Z,99892.75
2019-01-20T04:17:56.218Z,99887.26
2019-01-20T04:20:25.319Z,99887.50
2019-01-20T04:22:54.613Z,99886.20
2019-01-20T04:25:23.834Z,99885.47
2019-01-20T04:27:52.908Z,99878.08
2019-01-20T04:30:22.230Z,99879.38
2019-01-20T04:32:51.521Z,99884.16
2019-01-20T04:35:20.605Z,99879.01
2019-01-20T04:37:49.895Z,99888.66
2019-01-20T04:40:21.143Z,99890.69
2019-01-20T04:42:50.223Z,99890.95
2019-01-20T04:45:19.386Z,99889.26
2019-01-20T04:47:48.651Z,99884.27
2019-01-20T04:50:25.096Z,99881.77
2019-01-20T04:52:54.211Z,99885.34
2019-01-20T04:55:23.299Z,99883.55
2019-01-20T04:57:55.588Z,99884.38
2019-01-20T05:00:28.647Z,99882.61
2019-01-20T05:02:57.767Z,99880.58
2019-01-20T05:05:27.109Z,99883.70
2019-01-20T05:07:56.222Z,99886.66
2019-01-20T05:10:25.515Z,99888.91
2019-01-20T05:12:54.738Z,99888.06
2019-01-20T05:15:25.367Z,99889.88
2019-01-20T05:17:54.690Z,99883.78
2019-01-20T05:20:24.063Z,99887.27
2019-01-20T05:22:53.199Z,99887.01
2019-01-20T05:25:22.303Z,99891.30
2019-01-20T05:27:51.625Z,99885.84
2019-01-20T05:30:23.192Z,99894.52
2019-01-20T05:32:52.312Z,99895.83
2019-01-20T05:35:21.658Z,99888.06
2019-01-20T05:37:50.738Z,99890.69
2019-01-20T05:40:20.453Z,99887.02
2019-01-20T05:42:49.984Z,99883.31
2019-01-20T05:45:21.105Z,99883.77
2019-01-20T05:47:50.185Z,99884.50
2019-01-20T05:50:19.822Z,99891.28
2019-01-20T05:52:48.947Z,99888.66
2019-01-20T05:55:18.068Z,99886.17
2019-01-20T05:57:47.161Z,99885.45
2019-01-20T06:00:24.135Z,99888.31
2019-01-20T06:02:53.399Z,99885.94
2019-01-20T06:05:22.673Z,99887.86
2019-01-20T06:07:51.842Z,99890.36
2019-01-20T06:10:21.123Z,99896.80
2019-01-20T06:12:54.254Z,99898.45
2019-01-20T06:15:22.080Z,99896.44
2019-01-20T06:17:51.177Z,99901.91
2019-01-20T06:20:20.299Z,99901.44
2019-01-20T06:22:49.431Z,99890.59
2019-01-20T06:25:18.547Z,99890.71
2019-01-20T06:27:47.835Z,99894.75
2019-01-20T06:30:19.748Z,99902.73
2019-01-20T06:32:48.828Z,99910.25
2019-01-20T06:35:18.305Z,99903.47
2019-01-20T06:37:47.388Z,99903.71
2019-01-20T06:40:16.553Z,99908.00
2019-01-20T06:42:46.253Z,99909.90
2019-01-20T06:45:15.544Z,99910.36
2019-01-20T06:47:44.633Z,99911.91
2019-01-20T06:50:15.336Z,99914.41
2019-01-20T06:52:44.594Z,99916.09
2019-01-20T06:55:14.173Z,99923.84
2019-01-20T06:57:43.413Z,99927.03
2019-01-20T07:00:15.806Z,99924.18
2019-01-20T07:02:45.369Z,99926.83
2019-01-20T07:05:14.724Z,99922.53
2019-01-20T07:07:44.007Z,99922.03
2019-01-20T07:10:14.430Z,99925.74
2019-01-20T07:12:43.667Z,99930.02
2019-01-20T07:15:18.021Z,99937.88
2019-01-20T07:17:47.446Z,99942.66
2019-01-20T07:20:17.007Z,99954.56
2019-01-20T07:22:46.358Z,99955.87
2019-01-20T07:25:15.793Z,99959.08
2019-01-20T07:27:45.123Z,99962.19
2019-01-20T07:30:16.747Z,99962.30
2019-01-20T07:32:46.028Z,99960.39
2019-01-20T07:35:16.285Z,99970.78
2019-01-20T07:37:45.926Z,99971.39
2019-01-20T07:40:18.031Z,99974.47
2019-01-20T07:42:47.928Z,99976.15
2019-01-20T07:45:17.503Z,99983.28
2019-01-20T07:47:47.624Z,99990.32
2019-01-20T07:50:19.162Z,99991.50
2019-01-20T07:52:49.343Z,99990.78
2019-01-20T07:55:18.708Z,100006.77
2019-01-20T07:57:48.259Z,99997.94
2019-01-20T08:00:19.999Z,99995.44
2019-01-20T08:02:50.175Z,99997.69
2019-01-20T08:05:19.772Z,100005.70
2019-01-20T08:07:49.959Z,100002.94
2019-01-20T08:10:21.781Z,100005.31
2019-01-20T08:12:50.893Z,100000.41
2019-01-20T08:15:20.315Z,100001.95
2019-01-20T08:17:50.064Z,100005.89
2019-01-20T08:20:20.123Z,100005.16
2019-01-20T08:22:49.779Z,100013.15
2019-01-20T08:25:19.179Z,100013.75
2019-01-20T08:27:48.568Z,100019.95
2019-01-20T08:30:20.775Z,100026.52
2019-01-20T08:32:50.017Z,100032.20
2019-01-20T08:35:19.213Z,100035.58
2019-01-20T08:37:48.881Z,100035.66
2019-01-20T08:40:26.243Z,100036.95
2019-01-20T08:42:55.443Z,100035.52
2019-01-20T08:46:01.379Z,100031.19
2019-01-20T08:48:32.392Z,100038.97
2019-01-20T08:51:01.866Z,100044.42
2019-01-20T08:53:31.103Z,100042.95
2019-01-20T08:56:00.416Z,100039.73
2019-01-20T08:58:29.558Z,100044.91
2019-01-20T09:00:58.891Z,100047.14
2019-01-20T09:03:27.964Z,100053.59
2019-01-20T09:05:57.410Z,100057.03
2019-01-20T09:08:26.967Z,100057.72
2019-01-20T09:10:56.105Z,100061.73
2019-01-20T09:13:25.763Z,100063.87
2019-01-20T09:15:55.091Z,100064.80
2019-01-20T09:18:24.583Z,100063.23
2019-01-20T09:20:54.030Z,100068.03
2019-01-20T09:23:23.236Z,100069.68
2019-01-20T09:25:52.381Z,100073.33
2019-01-20T09:28:21.506Z,100072.40
2019-01-20T09:30:51.108Z,100074.53
2019-01-20T09:33:24.723Z,100076.27
2019-01-20T09:35:53.782Z,100075.45
2019-01-20T09:38:22.974Z,100084.23
2019-01-20T09:40:52.481Z,100079.48
2019-01-20T09:43:21.637Z,100083.03
2019-01-20T09:45:52.158Z,100081.77
2019-01-20T09:48:21.775Z,100074.98
2019-01-20T09:50:51.204Z,100080.96
2019-01-20T09:53:20.489Z,100088.56
2019-01-20T09:55:49.789Z,100088.72
2019-01-20T09:58:19.560Z,100088.61
2019-01-20T10:00:48.858Z,100093.88
2019-01-20T10:03:18.255Z,100095.52
2019-01-20T10:05:47.360Z,100092.16
2019-01-20T10:08:16.691Z,100095.39
2019-01-20T10:10:45.837Z,100096.80
2019-01-20T10:13:15.287Z,100104.59
2019-01-20T10:15:44.445Z,100101.80
2019-01-20T10:18:13.683Z,100098.73
2019-01-20T10:20:42.810Z,100100.83
2019-01-20T10:23:12.083Z,100106.83
2019-01-20T10:25:41.175Z,100101.66
2019-01-20T10:28:12.584Z,100096.59
2019-01-20T10:30:41.811Z,100105.42
2019-01-20T10:33:13.697Z,100102.01
2019-01-20T10:35:47.238Z,100110.80
2019-01-20T10:38:18.274Z,100108.80
2019-01-20T10:40:47.602Z,100113.25
2019-01-20T10:43:16.848Z,100108.52
2019-01-20T10:45:45.975Z,100112.63
2019-01-20T10:48:15.301Z,100109.73
2019-01-20T10:50:44.498Z,100108.78
2019-01-20T10:53:13.712Z,100105.52
2019-01-20T10:55:43.440Z,100102.94
2019-01-20T10:58:12.864Z,100103.86
2019-01-20T11:00:42.570Z,100104.38
2019-01-20T11:03:12.374Z,100104.13
2019-01-20T11:05:41.742Z,100107.73
2019-01-20T11:08:10.924Z,100112.95
2019-01-20T11:10:40.335Z,100102.80
2019-01-20T11:13:09.520Z,100105.70
2019-01-20T11:15:38.771Z,100103.27
2019-01-20T11:18:09.731Z,100108.48
2019-01-20T11:20:38.857Z,100107.89
2019-01-20T11:23:08.361Z,100106.98
2019-01-20T11:25:42.994Z,100111.84
2019-01-20T11:28:12.450Z,100101.69
2019-01-20T11:30:41.830Z,100105.56
2019-01-20T11:33:10.917Z,100106.50
2019-01-20T11:35:40.064Z,100105.49
2019-01-20T11:38:09.201Z,100107.77
2019-01-20T11:40:38.490Z,100105.95
2019-01-20T11:43:07.778Z,100104.12
2019-01-20T11:45:37.774Z,100109.62
2019-01-20T11:48:08.449Z,100109.42
2019-01-20T11:50:38.079Z,100112.09
2019-01-20T11:53:07.332Z,100116.94
2019-01-20T11:55:36.742Z,100106.97
2019-01-20T11:58:05.915Z,100111.61
2019-01-20T12:00:37.183Z,100119.81
2019-01-20T12:03:08.210Z,100113.22
2019-01-20T12:05:40.452Z,100105.92
2019-01-20T12:08:09.813Z,100108.28
2019-01-20T12:10:39.122Z,100107.44
2019-01-20T12:13:13.734Z,100103.88
2019-01-20T12:15:43.130Z,100103.81
2019-01-20T12:18:12.265Z,100105.97
2019-01-20T12:20:41.415Z,100109.41
2019-01-20T12:23:10.709Z,100109.83
2019-01-20T12:25:40.039Z,100103.59
2019-01-20T12:28:09.234Z,100108.17
2019-01-20T12:30:39.698Z,100111.47
2019-01-20T12:33:09.325Z,100114.20
2019-01-20T12:35:38.701Z,100118.42
2019-01-20T12:38:08.179Z,100118.80
2019-01-20T12:40:46.203Z,100112.62
2019-01-20T12:43:15.389Z,100112.62
2019-01-20T12:45:44.742Z,100106.06
2019-01-20T12:48:14.462Z,100104.63
2019-01-20T12:50:43.799Z,100099.82
2019-01-20T12:53:13.337Z,100098.46
2019-01-20T12:55:42.444Z,100100.87
2019-01-20T12:58:11.628Z,100101.86
2019-01-20T13:00:40.855Z,100107.09
2019-01-20T13:03:10.072Z,100104.36
2019-01-20T13:05:39.369Z,100104.13
2019-01-20T13:08:08.620Z,100104.13
2019-01-20T13:10:37.943Z,100106.09
2019-01-20T13:13:07.224Z,100099.30
2019-01-20T13:15:36.928Z,100097.56
2019-01-20T13:18:06.199Z,100095.59
2019-01-20T13:20:35.534Z,100097.44
2019-01-20T13:23:04.697Z,100098.34
2019-01-20T13:25:33.947Z,100096.26
2019-01-20T13:28:03.051Z,100101.02
2019-01-20T13:30:32.188Z,100101.68
2019-01-20T13:33:01.616Z,100103.56
2019-01-20T13:35:31.085Z,100106.82
2019-01-20T13:38:08.870Z,100105.56
2019-01-20T13:40:50.874Z,100103.29
2019-01-20T13:43:20.238Z,100100.03
2019-01-20T13:45:49.521Z,100101.31
2019-01-20T13:48:18.770Z,100105.54
2019-01-20T13:50:48.044Z,100102.11
2019-01-20T13:53:17.161Z,100109.41
2019-01-20T13:55:47.279Z,100106.49
2019-01-20T13:58:17.463Z,100111.86
2019-01-20T14:00:46.864Z,100111.86
2019-01-20T14:03:15.988Z,100118.45
2019-01-20T14:05:45.351Z,100115.54
2019-01-20T14:08:15.240Z,100121.16
2019-01-20T14:10:44.516Z,100119.19
2019-01-20T14:13:14.967Z,100118.94
2019-01-20T14:15:44.377Z,100124.69
2019-01-20T14:18:13.843Z,100124.69
2019-01-20T14:20:43.233Z,100122.22
2019-01-20T14:23:12.399Z,100126.23
2019-01-20T14:25:41.517Z,100126.09
2019-01-20T14:28:10.702Z,100126.91
2019-01-20T14:30:40.012Z,100126.58
2019-01-20T14:33:09.474Z,100134.12
2019-01-20T14:35:38.627Z,100128.51
2019-01-20T14:38:07.923Z,100129.83
2019-01-20T14:40:37.050Z,100127.33
2019-01-20T14:43:06.534Z,100125.20
2019-01-20T14:45:35.851Z,100130.90
2019-01-20T14:48:05.641Z,100136.56
2019-01-20T14:50:35.119Z,100135.48
2019-01-20T14:53:04.990Z,100128.81
2019-01-20T14:55:34.325Z,100136.23
2019-01-20T14:58:03.644Z,100139.09
2019-01-20T15:00:35.057Z,100143.45
2019-01-20T15:03:04.721Z,100148.73
2019-01-20T15:05:34.274Z,100152.93
2019-01-20T15:08:04.244Z,100152.93
2019-01-20T15:10:33.368Z,100156.05
2019-01-20T15:13:02.874Z,100157.99
2019-01-20T15:15:34.905Z,100161.81
2019-01-20T15:18:04.859Z,100166.66
2019-01-20T15:20:34.434Z,100166.66
2019-01-20T15:23:03.719Z,100167.03
2019-01-20T15:25:33.412Z,100164.94
2019-01-20T15:28:02.852Z,100170.13
2019-01-20T15:30:32.494Z,100171.66
2019-01-20T15:33:02.818Z,100167.98
2019-01-20T15:35:32.128Z,100174.30
2019-01-20T15:38:01.587Z,100170.55
2019-01-20T15:40:31.024Z,100176.60
2019-01-20T15:43:00.227Z,100182.84
2019-01-20T15:45:30.266Z,100174.78
2019-01-20T15:47:59.578Z,100186.86
2019-01-20T15:50:31.823Z,100186.56
2019-01-20T15:53:01.955Z,100186.59
2019-01-20T15:55:31.742Z,100187.30
2019-01-20T15:58:01.051Z,100189.74
2019-01-20T16:00:31.945Z,100202.58
2019-01-20T16:03:01.111Z,100207.33
2019-01-20T16:05:30.995Z,100214.39
2019-01-20T16:08:00.199Z,100211.95
2019-01-20T16:10:29.505Z,100215.09
2019-01-20T16:12:58.767Z,100221.70
2019-01-20T16:15:33.669Z,100223.95
2019-01-20T16:18:02.903Z,100222.06
2019-01-20T16:20:33.129Z,100228.96
2019-01-20T16:23:03.569Z,100231.06
2019-01-20T16:25:37.376Z,100230.86
2019-01-20T16:28:07.904Z,100237.48
2019-01-20T16:30:39.144Z,100237.39
2019-01-20T16:33:08.426Z,100234.11
2019-01-20T16:35:37.534Z,100231.64
2019-01-20T16:38:08.509Z,100229.41
2019-01-20T16:40:38.179Z,100233.77
2019-01-20T16:43:07.806Z,100233.97
2019-01-20T16:45:42.116Z,100232.30
2019-01-20T16:48:11.666Z,100241.07
2019-01-20T16:50:41.115Z,100239.08
2019-01-20T16:53:10.596Z,100231.44
2019-01-20T16:55:39.889Z,100240.60
2019-01-20T16:58:09.428Z,100242.59
2019-01-20T17:00:41.250Z,100244.52
2019-01-20T17:03:10.401Z,100243.03
2019-01-20T17:05:39.751Z,100243.64
2019-01-20T17:08:09.156Z,100246.14
2019-01-20T17:10:40.633Z,100250.23
2019-01-20T17:13:10.710Z,100256.69
2019-01-20T17:15:42.144Z,100248.38
2019-01-20T17:18:12.397Z,100255.72
2019-01-20T17:20:41.577Z,100256.64
2019-01-20T17:23:10.874Z,100256.90
2019-01-20T17:25:39.951Z,100256.49
2019-01-20T17:28:09.386Z,100260.05
2019-01-20T17:30:39.341Z,100256.96
2019-01-20T17:33:10.740Z,100255.98
2019-01-20T17:35:39.947Z,100257.10
2019-01-20T17:38:09.355Z,100261.33
2019-01-20T17:40:38.559Z,100266.23
2019-01-20T17:43:08.143Z,100264.34
2019-01-20T17:45:48.388Z,100264.92
2019-01-20T17:48:13.873Z,100277.20
2019-01-20T17:50:44.581Z,100274.95
2019-01-20T17:53:14.748Z,100276.80
2019-01-20T17:55:44.361Z,100282.34
2019-01-20T17:58:13.875Z,100283.33
2019-01-20T18:01:11.607Z,100291.66
2019-01-20T18:03:40.850Z,100287.84
2019-01-20T18:06:10.075Z,100296.14
2019-01-20T18:08:39.559Z,100297.11
2019-01-20T18:11:09.166Z,100302.85
2019-01-20T18:13:38.365Z,100306.34
2019-01-20T18:16:07.657Z,100304.84
2019-01-20T18:18:36.937Z,100302.91
2019-01-20T18:21:06.557Z,100307.40
2019-01-20T18:23:36.210Z,100310.85
2019-01-20T18:26:05.744Z,100309.58
2019-01-20T18:28:36.934Z,100316.98
2019-01-20T18:31:06.227Z,100312.89
2019-01-20T18:33:36.056Z,100315.88
2019-01-20T18:36:05.498Z,100327.61
2019-01-20T18:38:34.906Z,100321.41
2019-01-20T18:41:04.784Z,100313.94
2019-01-20T18:43:34.151Z,100319.41
2019-01-20T18:46:03.888Z,100323.31
2019-01-20T18:48:33.374Z,100326.74
2019-01-20T18:51:02.864Z,100331.03
2019-01-20T18:53:32.013Z,100334.59
2019-01-20T18:56:01.389Z,100335.84
2019-01-20T18:58:30.559Z,100340.67
2019-01-20T19:01:00.190Z,100341.77
2019-01-20T19:03:29.679Z,100345.84
2019-01-20T19:05:59.212Z,100344.34
2019-01-20T19:08:28.358Z,100350.95
2019-01-20T19:10:57.964Z,100343.56
2019-01-20T19:13:27.702Z,100345.47
2019-01-20T19:15:56.834Z,100342.84
2019-01-20T19:18:26.238Z,100348.44
2019-01-20T19:20:55.550Z,100349.30
2019-01-20T19:23:24.792Z,100355.83
2019-01-20T19:25:54.445Z,100359.24
2019-01-20T19:28:23.830Z,100358.45
2019-01-20T19:30:53.338Z,100365.52
2019-01-20T19:33:22.842Z,100367.89
2019-01-20T19:35:52.422Z,100364.30
2019-01-20T19:38:21.688Z,100365.25
2019-01-20T19:40:50.852Z,100360.61
2019-01-20T19:43:20.212Z,100362.92
2019-01-20T19:45:49.411Z,100359.47
2019-01-20T19:48:20.227Z,100358.94
2019-01-20T19:50:49.678Z,100359.67
2019-01-20T19:53:19.289Z,100353.25
2019-01-20T19:55:48.925Z,100364.81
2019-01-20T19:58:18.292Z,100368.84
2019-01-20T20:00:47.630Z,100362.77
2019-01-20T20:03:17.014Z,100367.19
2019-01-20T20:05:46.707Z,100351.05
2019-01-20T20:08:16.242Z,100368.42
2019-01-20T20:10:45.614Z,100377.41
2019-01-20T20:13:14.911Z,100380.50
2019-01-20T20:15:44.403Z,100386.18
2019-01-20T20:18:13.583Z,100389.47
2019-01-20T20:20:43.029Z,100391.64
2019-01-20T20:23:12.348Z,100396.92
2019-01-20T20:25:41.824Z,100396.73
2019-01-20T20:28:10.977Z,100399.93
2019-01-20T20:30:40.246Z,100401.69
2019-01-20T20:33:09.432Z,100405.42
2019-01-20T20:35:38.802Z,100411.84
2019-01-20T20:38:08.566Z,100414.35
2019-01-20T20:40:38.089Z,100419.16
2019-01-20T20:43:07.258Z,100413.45
2019-01-20T20:45:36.848Z,100420.08
2019-01-20T20:48:06.150Z,100413.78
2019-01-20T20:50:35.440Z,100426.41
2019-01-20T20:53:04.934Z,100425.78
2019-01-20T20:55:34.403Z,100426.29
2019-01-20T20:58:03.548Z,100424.25
2019-01-20T21:00:38.785Z,100429.05
2019-01-20T21:03:14.532Z,100426.83
2019-01-20T21:05:43.890Z,100426.36
2019-01-20T21:08:13.154Z,100429.00
2019-01-20T21:10:42.371Z,100434.14
2019-01-20T21:13:11.859Z,100440.13
2019-01-20T21:15:41.063Z,100438.31
2019-01-20T21:18:10.325Z,100435.08
2019-01-20T21:20:39.533Z,100438.06
2019-01-20T21:23:12.274Z,100443.55
2019-01-20T21:25:40.420Z,100444.36
2019-01-20T21:28:10.857Z,100442.64
2019-01-20T21:30:42.125Z,100442.14
2019-01-20T21:33:11.493Z,100443.42
2019-01-20T21:35:40.728Z,100436.61
2019-01-20T21:38:10.429Z,100441.34
2019-01-20T21:40:39.882Z,100437.55
2019-01-20T21:43:09.146Z,100444.11
2019-01-20T21:45:38.253Z,100442.11
2019-01-20T21:48:07.724Z,100441.42
2019-01-20T21:50:37.524Z,100444.09
2019-01-20T21:53:09.808Z,100451.98
2019-01-20T21:55:40.006Z,100452.84
2019-01-20T21:58:09.216Z,100454.75
2019-01-20T22:00:38.520Z,100460.71
2019-01-20T22:03:07.815Z,100459.77
2019-01-20T22:05:37.089Z,100465.03
2019-01-20T22:08:06.307Z,100463.47
2019-01-20T22:10:35.657Z,100471.94
2019-01-20T22:13:04.954Z,100467.86
2019-01-20T22:15:34.103Z,100476.96
2019-01-20T22:18:03.354Z,100472.29
2019-01-20T22:20:32.646Z,100480.45
2019-01-20T22:23:02.247Z,100482.95
2019-01-20T22:25:31.570Z,100479.84
2019-01-20T22:28:01.040Z,100485.30
2019-01-20T22:30:30.382Z,100487.09
2019-01-20T22:32:59.805Z,100495.09
2019-01-20T22:35:29.303Z,100495.71
2019-01-20T22:37:58.675Z,100498.34
2019-01-20T22:40:28.181Z,100493.34
2019-01-20T22:42:58.574Z,100503.31
2019-01-20T22:45:28.718Z,100500.47
2019-01-20T22:47:58.350Z,100510.38
2019-01-20T22:50:27.775Z,100504.55
2019-01-20T22:52:57.082Z,100508.02
2019-01-20T22:55:26.227Z,100508.41
2019-01-20T22:57:55.556Z,100506.84
2019-01-20T23:00:47.056Z,100508.17
2019-01-20T23:03:18.186Z,100509.86
2019-01-20T23:05:48.537Z,100508.16
2019-01-20T23:08:17.736Z,100512.84
2019-01-20T23:10:46.872Z,100510.22
2019-01-20T23:13:16.061Z,100515.45
2019-01-20T23:15:45.532Z,100523.95
2019-01-20T23:18:14.704Z,100512.12
2019-01-20T23:20:44.095Z,100514.75
2019-01-20T23:23:13.446Z,100400.64
2019-01-20T23:25:42.725Z,100517.97
2019-01-20T23:28:12.120Z,100514.26
2019-01-20T23:30:41.481Z,100514.98
2019-01-20T23:33:10.834Z,100516.66
2019-01-20T23:35:40.146Z,100517.73
2019-01-20T23:38:09.296Z,100515.23
2019-01-20T23:40:38.511Z,100511.48
2019-01-20T23:43:07.930Z,100521.30
2019-01-20T23:45:37.037Z,100526.33
2019-01-20T23:48:06.168Z,100526.09
2019-01-20T23:50:35.563Z,100525.87
2019-01-20T23:53:04.841Z,100526.30
2019-01-20T23:55:35.338Z,100531.82
2019-01-20T23:58:05.819Z,100529.27
